Time;durP1;ratioP1;P1;durP2;ratioP2;P2;SDS_P1;SDS_P2;PMS_P1;PMS_P2;Temp;Humidity;BMP_temperature;BMP_pressure;BME280_temperature;BME280_humidity;BME280_pressure;Samples;Min_cycle;Max_cycle;Signal;HPM_P1;HPM_P2
2022/10/24 00:00:41;;;;;;;21.83;3.65;;;14.70;99.90;;;;;;5025098;28;20053;-63
2022/10/24 00:03:07;;;;;;;15.18;3.42;;;14.80;99.90;;;;;;5024753;28;20356;-63
2022/10/24 00:05:32;;;;;;;13.48;4.35;;;14.60;99.90;;;;;;5026572;28;20044;-63
2022/10/24 00:07:58;;;;;;;18.40;3.35;;;14.60;99.90;;;;;;5026094;28;20029;-61
2022/10/24 00:10:24;;;;;;;15.15;3.25;;;14.50;99.90;;;;;;5026561;28;20482;-63
2022/10/24 00:12:49;;;;;;;17.90;4.13;;;14.50;99.90;;;;;;5025973;28;20055;-61
2022/10/24 00:15:15;;;;;;;12.85;4.00;;;14.50;99.90;;;;;;5027426;28;20040;-63
2022/10/24 00:17:41;;;;;;;16.60;3.08;;;14.40;99.90;;;;;;5027601;28;20029;-62
2022/10/24 00:20:07;;;;;;;19.40;4.10;;;14.40;99.90;;;;;;5028138;28;20095;-63
2022/10/24 00:22:33;;;;;;;22.38;4.25;;;14.50;99.90;;;;;;5028252;28;20025;-63
2022/10/24 00:24:59;;;;;;;13.55;4.03;;;14.50;99.90;;;;;;5027571;28;20083;-62
2022/10/24 00:27:24;;;;;;;12.15;4.40;;;14.50;99.90;;;;;;5021680;28;20565;-63
2022/10/24 00:29:50;;;;;;;22.92;4.80;;;14.50;99.90;;;;;;5027690;28;20032;-63
2022/10/24 00:32:16;;;;;;;14.60;4.20;;;14.50;99.90;;;;;;5025027;28;20129;-63
2022/10/24 00:34:41;;;;;;;21.25;4.97;;;14.50;99.90;;;;;;5027120;28;20398;-61
2022/10/24 00:37:07;;;;;;;26.60;4.60;;;14.60;99.90;;;;;;5026993;28;20030;-63
2022/10/24 00:39:32;;;;;;;10.25;4.50;;;14.60;99.90;;;;;;5028808;28;20095;-63
2022/10/24 00:41:58;;;;;;;25.77;4.75;;;14.60;99.90;;;;;;5031492;28;20026;-62
2022/10/24 00:44:28;;;;;;;29.98;5.05;;;14.60;99.90;;;;;;5029824;28;20036;-62
2022/10/24 00:47:01;;;;;;;19.02;4.80;;;14.50;99.90;;;;;;5029404;28;20053;-63
2022/10/24 00:49:42;;;;;;;14.40;5.35;;;14.60;99.90;;;;;;5028170;28;20065;-60
2022/10/24 00:52:08;;;;;;;18.00;4.45;;;14.60;99.90;;;;;;5031320;28;20048;-62
2022/10/24 00:54:37;;;;;;;16.77;4.28;;;14.60;99.90;;;;;;5028913;28;20083;-62
2022/10/24 00:57:05;;;;;;;13.90;4.30;;;14.70;99.90;;;;;;5031980;28;20086;-62
2022/10/24 00:59:33;;;;;;;13.98;4.20;;;14.80;99.90;;;;;;5032611;28;20102;-62
2022/10/24 01:01:59;;;;;;;18.55;5.05;;;14.80;99.90;;;;;;5033430;28;20029;-61
2022/10/24 01:04:25;;;;;;;21.52;4.40;;;14.70;99.90;;;;;;5033611;28;20024;-62
2022/10/24 01:06:59;;;;;;;18.42;4.50;;;14.70;99.90;;;;;;5037349;28;20037;-60
2022/10/24 01:09:34;;;;;;;23.63;4.47;;;14.60;99.90;;;;;;5033291;28;20112;-64
2022/10/24 01:12:33;;;;;;;28.80;5.00;;;14.60;99.90;;;;;;5045573;28;20022;-64
2022/10/24 01:15:23;;;;;;;13.38;3.65;;;14.60;99.90;;;;;;5028353;28;20040;-64
2022/10/24 01:18:06;;;;;;;26.77;4.57;;;14.50;99.90;;;;;;5027765;28;20105;-63
2022/10/24 01:21:08;;;;;;;21.10;4.60;;;14.50;99.90;;;;;;5008099;28;20123;-61
2022/10/24 01:24:11;;;;;;;16.20;4.07;;;14.50;99.90;;;;;;5028912;28;20383;-63
2022/10/24 01:26:53;;;;;;;25.42;5.53;;;14.60;99.90;;;;;;5028962;28;20121;-63
2022/10/24 01:29:39;;;;;;;25.75;4.05;;;14.50;99.90;;;;;;5031116;28;20486;-63
2022/10/24 01:32:21;;;;;;;25.52;4.93;;;14.50;99.90;;;;;;5012562;28;20029;-63
2022/10/24 01:35:10;;;;;;;14.25;4.80;;;14.50;99.90;;;;;;5030905;28;20096;-63
2022/10/24 01:38:07;;;;;;;22.52;4.80;;;14.50;99.90;;;;;;5030654;28;20036;-63
2022/10/24 01:41:02;;;;;;;17.90;4.18;;;14.40;99.90;;;;;;5028858;28;20030;-63
2022/10/24 01:43:35;;;;;;;16.92;4.38;;;14.60;99.90;;;;;;5024628;28;20513;-63
2022/10/24 01:46:05;;;;;;;18.30;3.83;;;14.50;99.90;;;;;;5028959;28;20036;-63
2022/10/24 01:48:37;;;;;;;19.65;4.13;;;14.50;99.90;;;;;;5030275;28;20091;-63
2022/10/24 01:51:05;;;;;;;17.10;4.22;;;14.50;99.90;;;;;;5025543;28;20056;-62
2022/10/24 01:53:31;;;;;;;25.45;4.22;;;14.50;99.90;;;;;;5027614;28;20075;-62
2022/10/24 01:55:58;;;;;;;14.65;3.80;;;14.40;99.90;;;;;;5026554;28;20053;-63
2022/10/24 01:58:23;;;;;;;21.25;4.18;;;14.40;99.90;;;;;;5029158;28;20100;-62
2022/10/24 02:00:53;;;;;;;17.13;4.10;;;14.50;99.90;;;;;;5027915;28;20022;-62
2022/10/24 02:03:51;;;;;;;12.77;3.60;;;14.50;99.90;;;;;;5026707;28;20022;-62
2022/10/24 02:06:22;;;;;;;27.00;4.45;;;14.50;99.90;;;;;;5026458;28;20515;-61
2022/10/24 02:08:53;;;;;;;17.60;6.35;;;14.50;99.90;;;;;;5028512;28;20080;-63
2022/10/24 02:11:18;;;;;;;18.30;4.60;;;14.50;99.90;;;;;;5027649;28;20112;-61
2022/10/24 02:13:49;;;;;;;22.73;3.88;;;14.50;99.90;;;;;;5027684;28;20117;-63
2022/10/24 02:16:18;;;;;;;15.63;4.28;;;14.50;99.90;;;;;;5023539;28;20034;-62
2022/10/24 02:18:44;;;;;;;19.98;4.40;;;14.50;99.90;;;;;;5029307;28;20483;-62
2022/10/24 02:21:22;;;;;;;23.52;5.00;;;14.50;99.90;;;;;;5025507;28;20044;-63
2022/10/24 02:24:14;;;;;;;25.25;4.55;;;14.60;99.90;;;;;;5027501;28;20053;-63
2022/10/24 02:26:56;;;;;;;22.10;4.40;;;14.70;99.90;;;;;;5027705;28;20026;-62
2022/10/24 02:29:28;;;;;;;32.28;6.57;;;14.70;99.90;;;;;;5025238;28;20025;-63
2022/10/24 02:31:56;;;;;;;10.35;3.80;;;14.70;99.90;;;;;;5025696;28;20487;-61
2022/10/24 02:34:27;;;;;;;14.00;4.18;;;14.70;99.90;;;;;;5029118;28;20053;-63
2022/10/24 02:36:55;;;;;;;20.13;3.83;;;14.80;99.90;;;;;;5028709;28;20025;-62
2022/10/24 02:39:21;;;;;;;11.15;4.57;;;14.80;99.90;;;;;;5025585;28;20057;-63
2022/10/24 02:41:49;;;;;;;22.73;3.85;;;14.80;99.90;;;;;;5033550;28;20038;-61
2022/10/24 02:44:16;;;;;;;19.35;3.97;;;14.70;99.90;;;;;;5026707;28;20021;-63
2022/10/24 02:46:44;;;;;;;13.88;3.70;;;14.60;99.90;;;;;;5026303;28;20033;-62
2022/10/24 02:49:10;;;;;;;21.40;5.00;;;14.60;99.90;;;;;;5031076;28;20025;-63
2022/10/24 02:51:38;;;;;;;13.32;3.72;;;14.50;99.90;;;;;;5062115;22;20857;-66
2022/10/24 02:54:04;;;;;;;15.93;3.40;;;14.60;99.90;;;;;;5048236;28;20043;-68
2022/10/24 02:56:30;;;;;;;26.80;4.03;;;14.60;99.90;;;;;;5047317;28;20808;-66
2022/10/24 02:58:56;;;;;;;16.40;3.90;;;14.60;99.90;;;;;;5049927;28;20044;-66
2022/10/24 03:01:22;;;;;;;11.82;3.97;;;14.70;99.90;;;;;;5042941;28;20017;-65
2022/10/24 03:03:47;;;;;;;14.07;3.10;;;14.70;99.90;;;;;;5043890;28;20025;-63
2022/10/24 03:06:13;;;;;;;35.05;4.50;;;14.70;99.90;;;;;;5045526;28;20484;-65
2022/10/24 03:08:38;;;;;;;15.02;3.63;;;14.70;99.90;;;;;;5040253;28;20388;-66
2022/10/24 03:11:04;;;;;;;33.85;4.03;;;14.60;99.90;;;;;;5045772;28;20056;-66
2022/10/24 03:13:30;;;;;;;40.38;3.88;;;14.60;99.90;;;;;;5044105;28;20021;-64
2022/10/24 03:15:55;;;;;;;17.77;4.47;;;14.60;99.90;;;;;;5040794;28;20029;-66
2022/10/24 03:18:21;;;;;;;26.83;3.70;;;14.60;99.90;;;;;;5045484;28;20029;-66
2022/10/24 03:20:46;;;;;;;16.10;3.13;;;14.60;99.90;;;;;;5046839;28;20497;-64
2022/10/24 03:23:13;;;;;;;20.27;3.55;;;14.60;99.90;;;;;;5038582;28;20037;-66
2022/10/24 03:25:39;;;;;;;16.63;3.42;;;14.60;99.90;;;;;;5042837;28;20021;-62
2022/10/24 03:28:05;;;;;;;15.95;4.05;;;14.60;99.90;;;;;;5046999;28;20487;-64
2022/10/24 03:30:30;;;;;;;23.70;3.75;;;14.60;99.90;;;;;;5047595;28;20392;-65
2022/10/24 03:32:56;;;;;;;15.93;3.20;;;14.60;99.90;;;;;;5045670;28;20755;-66
2022/10/24 03:35:21;;;;;;;27.33;3.92;;;14.70;99.90;;;;;;5046782;28;20727;-65
2022/10/24 03:37:47;;;;;;;24.60;3.72;;;14.70;99.90;;;;;;5045420;28;20029;-67
2022/10/24 03:40:12;;;;;;;19.02;3.65;;;14.70;99.90;;;;;;5045013;28;20029;-65
2022/10/24 03:42:38;;;;;;;17.10;3.38;;;14.60;99.90;;;;;;5048800;28;20100;-65
2022/10/24 03:45:04;;;;;;;15.40;3.40;;;14.60;99.90;;;;;;5043542;28;20057;-66
2022/10/24 03:47:30;;;;;;;27.40;3.22;;;14.70;99.90;;;;;;5048700;28;20512;-65
2022/10/24 03:49:55;;;;;;;12.30;2.97;;;14.60;99.90;;;;;;5042799;28;20048;-66
2022/10/24 03:52:21;;;;;;;32.40;3.63;;;14.60;99.90;;;;;;5046833;28;20037;-66
2022/10/24 03:54:46;;;;;;;21.23;3.65;;;14.60;99.90;;;;;;5043107;28;20047;-66
2022/10/24 03:57:12;;;;;;;16.17;2.70;;;14.60;99.90;;;;;;5045402;28;20032;-67
2022/10/24 03:59:38;;;;;;;16.33;3.05;;;14.70;99.90;;;;;;5042728;28;20032;-66
2022/10/24 04:02:05;;;;;;;19.98;4.65;;;14.80;99.90;;;;;;5045912;28;20029;-66
2022/10/24 04:04:31;;;;;;;9.60;2.75;;;14.80;99.90;;;;;;5044707;28;20103;-66
2022/10/24 04:06:57;;;;;;;17.95;3.35;;;14.80;99.90;;;;;;5045544;28;20029;-66
2022/10/24 04:09:23;;;;;;;22.40;2.53;;;14.80;99.90;;;;;;5038824;28;20060;-65
2022/10/24 04:11:50;;;;;;;7.25;2.70;;;14.80;99.90;;;;;;5040639;28;20546;-65
2022/10/24 04:14:15;;;;;;;9.05;2.75;;;14.70;99.90;;;;;;5047121;28;20025;-65
2022/10/24 04:16:41;;;;;;;17.05;3.50;;;14.70;99.90;;;;;;5050289;28;20036;-66
2022/10/24 04:19:06;;;;;;;5.57;2.60;;;14.70;99.90;;;;;;5052536;28;20048;-65
2022/10/24 04:21:32;;;;;;;15.10;3.15;;;14.60;99.90;;;;;;5044935;28;20029;-64
2022/10/24 04:23:57;;;;;;;24.60;2.80;;;14.60;99.90;;;;;;5042846;28;20029;-65
2022/10/24 04:26:23;;;;;;;14.40;2.55;;;14.60;99.90;;;;;;5050706;28;20036;-67
2022/10/24 04:28:49;;;;;;;16.08;3.33;;;14.50;99.90;;;;;;5045681;28;20021;-64
2022/10/24 04:31:15;;;;;;;23.90;2.90;;;14.60;99.90;;;;;;5050419;28;20585;-64
2022/10/24 04:33:41;;;;;;;25.10;3.33;;;14.60;99.90;;;;;;5051566;28;20033;-65
2022/10/24 04:36:07;;;;;;;13.77;3.13;;;14.60;99.90;;;;;;5050052;28;20398;-65
2022/10/24 04:38:32;;;;;;;11.63;2.50;;;14.60;99.90;;;;;;5051446;28;20108;-66
2022/10/24 04:40:58;;;;;;;9.43;2.20;;;14.60;99.90;;;;;;5051601;28;20044;-65
2022/10/24 04:43:24;;;;;;;15.63;2.45;;;14.60;99.90;;;;;;5049422;28;20092;-68
2022/10/24 04:45:50;;;;;;;22.58;2.55;;;14.60;99.90;;;;;;5046008;28;20506;-65
2022/10/24 04:48:16;;;;;;;12.23;2.58;;;14.60;99.90;;;;;;5050646;28;20071;-68
2022/10/24 04:50:43;;;;;;;14.13;2.65;;;14.60;99.90;;;;;;5047994;28;20086;-65
2022/10/24 04:53:09;;;;;;;22.00;2.63;;;14.60;99.90;;;;;;5046465;28;20093;-66
2022/10/24 04:55:35;;;;;;;16.98;2.47;;;14.60;99.90;;;;;;5051613;28;20112;-66
2022/10/24 04:58:01;;;;;;;19.08;2.90;;;14.60;99.90;;;;;;5046600;28;20149;-65
2022/10/24 05:00:26;;;;;;;21.85;3.45;;;14.60;99.90;;;;;;5046882;28;20399;-65
2022/10/24 05:02:52;;;;;;;13.27;2.58;;;14.50;99.90;;;;;;5054786;28;20033;-66
2022/10/24 05:05:18;;;;;;;17.17;2.85;;;14.60;99.90;;;;;;5047808;28;20024;-66
2022/10/24 05:07:44;;;;;;;15.13;3.38;;;14.50;99.90;;;;;;5039285;28;20053;-65
2022/10/24 05:10:11;;;;;;;9.70;2.10;;;14.50;99.90;;;;;;5046520;28;20082;-64
2022/10/24 05:12:36;;;;;;;6.60;2.20;;;14.60;99.90;;;;;;5046470;28;20033;-66
2022/10/24 05:15:02;;;;;;;9.02;2.28;;;14.50;99.90;;;;;;5048410;28;20032;-66
2022/10/24 05:17:27;;;;;;;9.93;2.30;;;14.50;99.90;;;;;;5049500;28;20072;-66
2022/10/24 05:19:53;;;;;;;11.88;2.13;;;14.40;99.90;;;;;;5047852;28;20395;-65
2022/10/24 05:22:19;;;;;;;21.02;2.25;;;14.40;99.90;;;;;;5039997;28;20025;-67
2022/10/24 05:24:44;;;;;;;7.05;2.30;;;14.30;99.90;;;;;;5046069;28;20017;-64
2022/10/24 05:27:10;;;;;;;16.83;2.63;;;14.30;99.90;;;;;;5049262;28;20025;-64
2022/10/24 05:29:35;;;;;;;5.95;1.75;;;14.20;99.90;;;;;;5037569;28;20033;-67
2022/10/24 05:32:01;;;;;;;7.82;2.15;;;14.20;99.90;;;;;;5049667;28;20053;-62
2022/10/24 05:34:26;;;;;;;22.33;2.35;;;14.20;99.90;;;;;;5048409;28;20055;-66
2022/10/24 05:36:52;;;;;;;15.02;2.45;;;14.20;99.90;;;;;;5051000;28;20116;-64
2022/10/24 05:39:17;;;;;;;18.02;2.50;;;14.20;99.90;;;;;;5050732;28;20402;-66
2022/10/24 05:41:43;;;;;;;15.05;2.10;;;14.20;99.90;;;;;;5041168;28;20052;-66
2022/10/24 05:44:11;;;;;;;16.77;2.60;;;14.30;99.90;;;;;;5045106;28;20029;-65
2022/10/24 05:46:37;;;;;;;12.00;2.22;;;14.30;99.90;;;;;;5047599;28;20100;-69
2022/10/24 05:49:03;;;;;;;10.68;2.53;;;14.20;99.90;;;;;;5051712;28;20565;-65
2022/10/24 05:51:29;;;;;;;17.58;2.30;;;14.20;99.90;;;;;;5039818;28;20095;-66
2022/10/24 05:53:54;;;;;;;21.70;2.70;;;14.10;99.90;;;;;;5051821;28;20475;-65
2022/10/24 05:56:20;;;;;;;9.50;1.98;;;14.20;99.90;;;;;;5050909;28;20478;-66
2022/10/24 05:58:46;;;;;;;12.75;2.40;;;14.10;99.90;;;;;;5045032;28;20509;-68
2022/10/24 06:01:12;;;;;;;8.82;1.60;;;13.90;99.90;;;;;;5045019;28;20021;-66
2022/10/24 06:03:38;;;;;;;15.32;2.22;;;13.80;99.90;;;;;;5047947;28;20022;-66
2022/10/24 06:06:09;;;;;;;11.35;2.05;;;13.90;99.90;;;;;;5042022;28;20079;-66
2022/10/24 06:08:36;;;;;;;7.43;1.98;;;14.10;99.90;;;;;;5051335;28;20028;-67
2022/10/24 06:11:03;;;;;;;18.38;2.03;;;14.00;99.90;;;;;;5044158;28;20033;-66
2022/10/24 06:13:29;;;;;;;17.25;2.35;;;14.00;99.90;;;;;;5033450;28;20069;-64
2022/10/24 06:15:55;;;;;;;12.57;1.88;;;14.10;99.90;;;;;;5038220;28;20029;-65
2022/10/24 06:18:21;;;;;;;5.82;1.63;;;14.10;99.90;;;;;;5041854;28;20026;-63
2022/10/24 06:20:46;;;;;;;12.18;1.40;;;14.10;99.90;;;;;;5048679;28;20028;-65
2022/10/24 06:23:12;;;;;;;7.55;1.60;;;14.20;99.90;;;;;;5050287;28;20599;-63
2022/10/24 06:25:41;;;;;;;17.52;2.17;;;14.20;99.90;;;;;;5047858;28;20032;-62
2022/10/24 06:28:07;;;;;;;7.20;1.83;;;14.20;99.90;;;;;;5050364;28;20037;-64
2022/10/24 06:30:33;;;;;;;10.95;2.33;;;14.30;99.90;;;;;;5049941;28;20809;-65
2022/10/24 06:33:00;;;;;;;11.60;1.48;;;14.30;99.90;;;;;;5037119;28;20048;-68
2022/10/24 06:35:25;;;;;;;10.15;1.33;;;14.30;99.90;;;;;;5044663;28;20092;-66
2022/10/24 06:37:51;;;;;;;15.00;2.10;;;14.20;99.90;;;;;;5049716;28;20033;-64
2022/10/24 06:40:17;;;;;;;8.18;1.38;;;14.30;99.90;;;;;;5050294;28;20036;-64
2022/10/24 06:42:43;;;;;;;7.25;1.38;;;14.30;99.90;;;;;;5049602;28;20155;-63
2022/10/24 06:45:09;;;;;;;7.93;1.40;;;14.40;99.90;;;;;;5050751;28;20100;-64
2022/10/24 06:47:35;;;;;;;9.85;1.60;;;14.40;99.90;;;;;;5048769;28;20037;-64
2022/10/24 06:50:01;;;;;;;11.82;1.60;;;14.40;99.90;;;;;;5050071;28;20032;-65
2022/10/24 06:52:26;;;;;;;8.10;1.65;;;14.50;99.90;;;;;;5049422;28;20047;-64
2022/10/24 06:54:52;;;;;;;9.18;1.92;;;14.60;99.90;;;;;;5044591;28;20029;-62
2022/10/24 06:57:17;;;;;;;11.60;1.52;;;14.50;99.90;;;;;;5039897;28;20030;-64
2022/10/24 06:59:43;;;;;;;18.38;2.03;;;14.50;99.90;;;;;;5047702;28;20029;-60
2022/10/24 07:02:12;;;;;;;8.23;1.80;;;14.50;99.90;;;;;;5049269;28;20475;-64
2022/10/24 07:04:38;;;;;;;9.27;1.50;;;14.50;99.90;;;;;;5050242;28;20032;-64
2022/10/24 07:07:03;;;;;;;14.00;3.53;;;14.70;99.90;;;;;;5047418;28;20399;-67
2022/10/24 07:09:29;;;;;;;3.85;1.60;;;14.80;99.90;;;;;;5046271;28;20043;-64
2022/10/24 07:11:55;;;;;;;16.75;2.17;;;14.90;99.90;;;;;;5045409;28;20039;-66
2022/10/24 07:14:20;;;;;;;7.18;1.25;;;15.00;99.90;;;;;;5049931;28;20027;-64
2022/10/24 07:16:46;;;;;;;20.02;1.90;;;15.20;99.90;;;;;;5040892;28;20038;-67
2022/10/24 07:19:11;;;;;;;11.43;1.60;;;15.30;99.90;;;;;;5040567;28;20937;-62
2022/10/24 07:21:38;;;;;;;13.82;1.90;;;15.30;99.90;;;;;;5038237;28;20048;-63
2022/10/24 07:24:04;;;;;;;6.85;1.35;;;15.40;99.90;;;;;;5046692;28;20402;-68
2022/10/24 07:26:31;;;;;;;12.88;1.23;;;15.30;99.90;;;;;;5047348;28;20103;-64
2022/10/24 07:28:59;;;;;;;5.25;1.10;;;15.30;99.90;;;;;;5048824;28;20025;-64
2022/10/24 07:31:29;;;;;;;12.13;1.50;;;15.40;99.90;;;;;;5047564;28;20125;-61
2022/10/24 07:33:55;;;;;;;6.38;1.15;;;15.40;99.90;;;;;;5048687;28;20426;-63
2022/10/24 07:36:23;;;;;;;9.00;1.45;;;15.60;99.90;;;;;;5045190;28;20025;-65
2022/10/24 07:38:50;;;;;;;5.35;1.13;;;15.70;99.90;;;;;;5040404;28;20029;-64
2022/10/24 07:41:17;;;;;;;7.47;1.25;;;15.80;99.90;;;;;;5046432;28;20031;-64
2022/10/24 07:43:42;;;;;;;8.20;1.27;;;15.90;99.90;;;;;;5048992;28;20025;-64
2022/10/24 07:46:10;;;;;;;11.52;2.15;;;16.00;99.90;;;;;;5048260;28;20040;-63
2022/10/24 07:48:37;;;;;;;4.72;0.98;;;16.00;99.90;;;;;;5046418;28;20108;-64
2022/10/24 07:51:09;;;;;;;7.88;1.75;;;16.20;99.90;;;;;;5042539;28;20076;-65
2022/10/24 07:53:34;;;;;;;5.65;1.10;;;16.30;99.90;;;;;;5041263;28;20038;-65
2022/10/24 07:56:01;;;;;;;9.43;1.00;;;16.30;99.90;;;;;;5045267;28;20038;-66
2022/10/24 07:58:27;;;;;;;13.10;1.30;;;16.30;99.90;;;;;;5042050;28;20114;-65
2022/10/24 08:00:52;;;;;;;2.15;1.00;;;16.50;99.90;;;;;;5041420;28;20636;-65
2022/10/24 08:03:18;;;;;;;9.48;1.10;;;16.40;99.90;;;;;;5042326;28;20053;-65
2022/10/24 08:05:43;;;;;;;5.57;0.98;;;16.50;99.90;;;;;;5041518;28;20075;-65
2022/10/24 08:08:09;;;;;;;21.73;1.33;;;16.50;99.90;;;;;;5041564;28;20033;-65
2022/10/24 08:10:35;;;;;;;19.60;2.25;;;16.50;99.90;;;;;;5043938;28;20025;-66
2022/10/24 08:13:01;;;;;;;6.40;0.90;;;16.50;99.90;;;;;;5048480;28;20114;-65
2022/10/24 08:15:26;;;;;;;9.35;1.42;;;16.60;99.90;;;;;;5041957;28;20078;-64
2022/10/24 08:17:53;;;;;;;4.53;0.80;;;16.70;99.90;;;;;;5049004;28;20021;-62
2022/10/24 08:20:20;;;;;;;9.90;1.02;;;16.60;99.90;;;;;;5046366;28;20033;-65
2022/10/24 08:22:46;;;;;;;8.65;1.10;;;16.60;99.90;;;;;;5047417;28;20108;-65
2022/10/24 08:25:13;;;;;;;6.78;1.05;;;16.70;99.90;;;;;;5047530;28;20096;-65
2022/10/24 08:27:39;;;;;;;7.38;1.13;;;16.70;99.90;;;;;;5045614;28;20025;-66
2022/10/24 08:30:06;;;;;;;7.57;1.20;;;16.60;99.90;;;;;;5047124;28;20029;-66
2022/10/24 08:32:32;;;;;;;8.45;1.30;;;16.70;99.90;;;;;;5048455;28;20475;-65
2022/10/24 08:34:58;;;;;;;10.32;1.35;;;16.70;99.90;;;;;;5047182;28;20528;-64
2022/10/24 08:37:23;;;;;;;3.10;1.00;;;16.80;99.90;;;;;;5048200;28;20025;-66
2022/10/24 08:39:49;;;;;;;5.93;1.50;;;16.80;99.90;;;;;;5047620;28;20553;-66
2022/10/24 08:42:16;;;;;;;6.18;0.95;;;16.90;99.90;;;;;;5048063;28;20029;-65
2022/10/24 08:44:44;;;;;;;10.52;1.20;;;17.00;99.90;;;;;;5047325;28;20028;-66
2022/10/24 08:47:40;;;;;;;6.45;1.10;;;17.00;99.90;;;;;;5048475;28;20020;-64
2022/10/24 08:50:26;;;;;;;7.07;0.80;;;17.00;99.90;;;;;;5047587;28;20021;-65
2022/10/24 08:53:03;;;;;;;16.35;1.30;;;17.30;99.90;;;;;;5060507;22;20483;-62
2022/10/24 08:55:37;;;;;;;8.52;1.00;;;17.40;99.90;;;;;;5036521;28;20063;-61
2022/10/24 08:58:04;;;;;;;6.93;1.07;;;17.40;99.90;;;;;;5028374;28;20036;-61
2022/10/24 09:00:39;;;;;;;3.95;0.82;;;17.50;99.90;;;;;;5037209;28;20944;-61
2022/10/24 09:03:26;;;;;;;6.60;0.90;;;17.50;99.90;;;;;;5033851;28;20021;-63
2022/10/24 09:05:55;;;;;;;11.55;1.20;;;17.60;99.90;;;;;;5034436;28;20029;-63
2022/10/24 09:08:42;;;;;;;14.35;1.17;;;17.70;99.90;;;;;;5037894;28;20025;-62
2022/10/24 09:11:14;;;;;;;11.60;1.23;;;17.70;99.90;;;;;;5034761;28;20376;-63
2022/10/24 09:13:40;;;;;;;12.23;1.25;;;17.90;99.90;;;;;;5034577;28;20029;-63
2022/10/24 09:16:09;;;;;;;11.10;2.03;;;17.90;99.90;;;;;;5037561;28;20029;-63
2022/10/24 09:18:40;;;;;;;11.38;1.00;;;18.00;99.90;;;;;;5031958;28;20037;-61
2022/10/24 09:21:08;;;;;;;9.73;2.63;;;18.10;99.90;;;;;;5036539;28;20022;-63
2022/10/24 09:23:36;;;;;;;12.05;0.95;;;18.20;99.90;;;;;;5036052;28;20083;-62
2022/10/24 09:26:04;;;;;;;4.45;0.80;;;18.30;99.90;;;;;;5034724;28;20013;-63
2022/10/24 09:28:33;;;;;;;14.75;2.13;;;18.50;99.90;;;;;;5036381;28;20097;-62
2022/10/24 09:31:03;;;;;;;9.18;1.00;;;18.50;99.90;;;;;;5033399;28;20030;-63
2022/10/24 09:33:33;;;;;;;6.38;1.30;;;18.60;99.90;;;;;;5031552;28;20112;-61
2022/10/24 09:36:02;;;;;;;35.33;2.58;;;18.60;99.90;;;;;;5031006;28;20025;-63
2022/10/24 09:38:34;;;;;;;8.45;1.30;;;18.70;99.90;;;;;;5029244;28;20029;-62
2022/10/24 09:41:22;;;;;;;17.70;1.85;;;18.70;99.90;;;;;;5036041;28;20487;-63
2022/10/24 09:43:53;;;;;;;16.65;1.92;;;18.70;99.90;;;;;;5035547;28;20037;-63
2022/10/24 09:46:43;;;;;;;5.85;0.88;;;18.90;99.90;;;;;;5030145;28;20030;-61
2022/10/24 09:49:13;;;;;;;5.80;1.10;;;19.10;99.90;;;;;;5033802;28;20099;-62
2022/10/24 09:52:04;;;;;;;9.70;1.33;;;19.20;99.90;;;;;;5015665;28;20486;-61
2022/10/24 09:54:32;;;;;;;14.18;1.02;;;19.40;99.90;;;;;;5020558;28;20507;-62
2022/10/24 09:56:57;;;;;;;15.85;2.22;;;19.50;99.90;;;;;;5021114;28;20052;-61
2022/10/24 09:59:34;;;;;;;13.27;1.23;;;19.50;99.90;;;;;;5024126;28;20041;-62
2022/10/24 10:02:18;;;;;;;6.15;0.85;;;19.50;99.90;;;;;;5025079;28;20029;-61
2022/10/24 10:04:48;;;;;;;3.88;1.02;;;19.50;99.90;;;;;;5027612;28;20035;-62
2022/10/24 10:07:19;;;;;;;5.15;0.80;;;19.40;99.90;;;;;;5026466;28;20034;-61
2022/10/24 10:09:52;;;;;;;8.30;1.02;;;19.30;99.90;;;;;;5028330;28;20033;-61
2022/10/24 10:12:35;;;;;;;7.68;0.90;;;19.30;99.90;;;;;;5023161;28;20112;-62
2022/10/24 10:15:23;;;;;;;10.73;1.45;;;19.30;99.90;;;;;;5026666;28;20119;-62
2022/10/24 10:17:50;;;;;;;9.05;1.08;;;19.40;99.90;;;;;;5022915;28;20550;-61
2022/10/24 10:20:26;;;;;;;9.38;0.80;;;19.60;99.90;;;;;;5027250;28;20033;-61
2022/10/24 10:22:52;;;;;;;12.00;2.05;;;19.70;99.90;;;;;;5026788;28;20057;-62
2022/10/24 10:25:29;;;;;;;7.63;0.93;;;19.70;99.90;;;;;;5025641;28;20072;-60
2022/10/24 10:27:55;;;;;;;10.52;0.90;;;19.70;99.90;;;;;;5023691;28;20084;-61
2022/10/24 10:30:21;;;;;;;7.85;1.92;;;19.70;99.90;;;;;;5029252;28;20025;-61
2022/10/24 10:32:56;;;;;;;9.00;0.90;;;19.50;99.90;;;;;;5032565;28;20028;-61
2022/10/24 10:35:29;;;;;;;15.50;1.27;;;19.40;99.90;;;;;;5023077;28;20034;-61
2022/10/24 10:38:24;;;;;;;3.07;1.13;;;19.30;99.90;;;;;;5027831;28;20021;-61
2022/10/24 10:41:02;;;;;;;7.47;0.98;;;19.20;99.90;;;;;;5023959;28;20048;-60
2022/10/24 10:43:42;;;;;;;20.70;1.02;;;19.20;99.90;;;;;;5029841;28;20034;-61
2022/10/24 10:46:32;;;;;;;7.47;1.35;;;19.20;99.90;;;;;;5030464;28;20024;-60
2022/10/24 10:49:05;;;;;;;12.85;1.90;;;19.20;99.90;;;;;;5027324;28;20033;-61
2022/10/24 10:51:39;;;;;;;14.27;1.35;;;19.20;99.90;;;;;;5030706;28;20041;-62
2022/10/24 10:54:34;;;;;;;8.05;1.20;;;19.20;99.90;;;;;;5031097;28;20036;-61
2022/10/24 10:57:08;;;;;;;12.30;0.90;;;19.20;99.90;;;;;;5025758;28;20041;-61
2022/10/24 10:59:40;;;;;;;11.93;0.90;;;19.20;99.90;;;;;;5028262;28;20064;-60
2022/10/24 11:02:17;;;;;;;9.05;1.30;;;19.20;99.90;;;;;;5021847;28;20109;-60
2022/10/24 11:04:56;;;;;;;5.93;0.93;;;19.10;99.90;;;;;;5035182;28;20105;-61
2022/10/24 11:07:28;;;;;;;5.18;1.02;;;19.00;99.90;;;;;;5034254;28;20503;-61
2022/10/24 11:09:58;;;;;;;8.30;1.30;;;19.10;99.90;;;;;;5033154;28;20029;-61
2022/10/24 11:12:35;;;;;;;6.63;1.30;;;19.00;99.90;;;;;;5028240;28;20025;-60
2022/10/24 11:15:22;;;;;;;11.30;1.40;;;19.10;99.90;;;;;;5028559;28;20036;-61
2022/10/24 11:18:16;;;;;;;8.57;0.88;;;19.10;99.90;;;;;;5026924;28;20037;-61
2022/10/24 11:20:50;;;;;;;7.97;0.93;;;19.00;99.90;;;;;;5029209;28;20491;-61
2022/10/24 11:23:43;;;;;;;9.40;1.10;;;19.00;99.90;;;;;;5020534;28;20117;-62
2022/10/24 11:26:15;;;;;;;9.98;1.70;;;18.90;99.90;;;;;;5032714;28;20288;-60
2022/10/24 11:29:22;;;;;;;8.15;1.77;;;18.90;99.90;;;;;;5026776;28;20373;-62
2022/10/24 11:32:19;;;;;;;10.73;1.38;;;18.90;99.90;;;;;;5022189;28;20029;-60
2022/10/24 11:34:53;;;;;;;10.57;1.40;;;18.90;99.90;;;;;;5009197;28;20064;-60
2022/10/24 11:37:25;;;;;;;;;;;19.00;99.90;;;;;;5029032;28;20029;-60
2022/10/24 11:39:59;;;;;;;17.17;1.40;;;19.00;99.90;;;;;;5024872;28;20479;-59
2022/10/24 11:42:45;;;;;;;8.02;1.20;;;19.00;99.90;;;;;;5030783;28;20372;-60
2022/10/24 11:45:17;;;;;;;12.77;0.95;;;19.10;99.90;;;;;;5009699;28;20545;-61
2022/10/24 11:48:19;;;;;;;11.15;1.20;;;19.00;99.90;;;;;;5023882;28;20454;-61
2022/10/24 11:51:13;;;;;;;7.32;1.33;;;19.00;99.90;;;;;;5026827;28;20050;-60
2022/10/24 11:53:48;;;;;;;7.00;1.20;;;18.90;99.90;;;;;;5030953;28;20061;-60
2022/10/24 11:56:40;;;;;;;8.30;1.13;;;18.90;99.90;;;;;;5006153;28;20038;-61
2022/10/24 11:59:25;;;;;;;9.82;1.00;;;18.90;99.90;;;;;;5008103;28;20443;-60
2022/10/24 12:02:20;;;;;;;5.78;0.68;;;18.90;99.90;;;;;;5010795;28;20108;-61
2022/10/24 12:04:58;;;;;;;;;;;18.90;99.90;;;;;;5021175;28;20021;-62
2022/10/24 12:08:01;;;;;;;10.85;1.10;;;18.90;99.90;;;;;;5012815;28;20007;-61
2022/10/24 12:10:52;;;;;;;5.45;1.00;;;18.90;99.90;;;;;;5021348;28;20038;-62
2022/10/24 12:13:39;;;;;;;10.88;1.25;;;19.00;99.90;;;;;;5017150;28;20037;-61
2022/10/24 12:16:39;;;;;;;4.18;1.00;;;19.00;99.90;;;;;;5028181;28;20026;-61
2022/10/24 12:19:12;;;;;;;10.30;1.75;;;19.00;99.90;;;;;;5007005;28;20451;-61
2022/10/24 12:21:45;;;;;;;3.25;1.10;;;19.00;99.90;;;;;;5017594;28;20659;-61
2022/10/24 12:24:37;;;;;;;10.80;0.80;;;19.00;99.90;;;;;;5031656;28;20022;-61
2022/10/24 12:27:31;;;;;;;8.68;1.13;;;18.90;99.90;;;;;;4978220;28;20045;-61
2022/10/24 12:30:26;;;;;;;11.82;1.30;;;18.90;99.90;;;;;;5009238;28;20428;-61
2022/10/24 12:33:21;;;;;;;17.48;1.23;;;18.90;99.90;;;;;;5008468;28;20025;-61
2022/10/24 12:35:51;;;;;;;7.10;0.93;;;18.80;99.90;;;;;;5008429;28;20025;-61
2022/10/24 12:38:26;;;;;;;10.15;1.27;;;18.70;99.90;;;;;;5012407;28;20549;-61
2022/10/24 12:41:17;;;;;;;9.55;0.98;;;18.70;99.90;;;;;;5033377;28;20115;-60
2022/10/24 12:43:47;;;;;;;6.70;0.98;;;18.60;99.90;;;;;;4994416;28;20037;-62
2022/10/24 12:46:18;;;;;;;4.80;1.10;;;18.60;99.90;;;;;;5017368;28;20029;-60
2022/10/24 12:48:44;;;;;;;8.05;1.02;;;18.60;99.90;;;;;;5032054;28;20029;-61
2022/10/24 12:51:33;;;;;;;10.35;1.15;;;18.60;99.90;;;;;;5018147;28;20128;-61
2022/10/24 12:54:10;;;;;;;3.15;0.90;;;18.50;99.90;;;;;;5020174;28;20033;-55
2022/10/24 12:56:59;;;;;;;7.45;0.90;;;18.50;99.90;;;;;;5032071;28;20026;-60
2022/10/24 12:59:30;;;;;;;5.57;0.98;;;18.50;99.90;;;;;;5026838;28;20113;-60
2022/10/24 13:02:14;;;;;;;10.13;1.10;;;18.60;99.90;;;;;;5033150;28;20028;-61